Aviation Digital Data Service (ADDS)

Output produced by METARs form (1445 UTC 27 November 2021)
found at http://aviationweather.gov/metar/data/
 
METAR text: KRNT 271353Z AUTO 11003KT 9SM BKN033 OVC043 09/08 A3010 RMK AO2 SLP198 T00890078
Conditions at: KRNT (RENTON , WA, US) observed 1353 UTC 27 November 2021
Temperature: 8.9°C (48°F)
Dewpoint: 7.8°C (46°F) [RH = 93%]
Pressure (altimeter): 30.10 inches Hg (1019.4 mb)
[Sea-level pressure: 1019.8 mb]
Winds: from the ESE (110 degrees) at 3 MPH (3 knots; 1.5 m/s)
Visibility: 9 miles (14 km)
Ceiling: 3300 feet AGL
Clouds: broken clouds at 3300 feet AGL
overcast cloud deck at 4300 feet AGL
Weather: automated observation with no human augmentation;
there may or may not be significant weather present at this time

METAR text: KRNT 271253Z AUTO 00000KT 8SM BKN037 OVC044 09/08 A3012 RMK AO2 SLP205 T00890078
Conditions at: KRNT (RENTON , WA, US) observed 1253 UTC 27 November 2021
Temperature: 8.9°C (48°F)
Dewpoint: 7.8°C (46°F) [RH = 93%]
Pressure (altimeter): 30.12 inches Hg (1020.1 mb)
[Sea-level pressure: 1020.5 mb]
Winds: calm
Visibility: 8 miles (13 km)
Ceiling: 3700 feet AGL
Clouds: broken clouds at 3700 feet AGL
overcast cloud deck at 4400 feet AGL
Weather: automated observation with no human augmentation;
there may or may not be significant weather present at this time